Time;durP1;ratioP1;P1;durP2;ratioP2;P2;SDS_P1;SDS_P2;PMS_P1;PMS_P2;Temp;Humidity;BMP_temperature;BMP_pressure;BME280_temperature;BME280_humidity;BME280_pressure;Samples;Min_cycle;Max_cycle;Signal;HPM_P1;HPM_P2
2022/09/12 00:02:13;;;;;;;;;;;;;;;13.95;nan;100647.97;4970370;28;20016;-66
2022/09/12 00:04:38;;;;;;;;;;;;;;;13.89;nan;100643.31;4968824;28;19922;-65
2022/09/12 00:07:03;;;;;;;;;;;;;;;13.93;nan;100647.31;4969931;28;20270;-65
2022/09/12 00:09:28;;;;;;;;;;;;;;;13.85;nan;100642.00;4969672;28;19914;-65
2022/09/12 00:11:53;;;;;;;;;;;;;;;13.78;nan;100637.38;4969545;28;19969;-65
2022/09/12 00:14:19;;;;;;;;;;;;;;;13.71;nan;100649.69;4970352;28;19961;-65
2022/09/12 00:16:44;;;;;;;;;;;;;;;13.65;nan;100645.03;4970165;28;20433;-65
2022/09/12 00:19:10;;;;;;;;;;;;;;;13.58;nan;100644.06;4968229;28;19925;-65
2022/09/12 00:21:37;;;;;;;5.38;3.80;;;;;;;13.51;nan;100635.91;4966154;28;20321;-65
2022/09/12 00:24:04;;;;;;;4.18;3.33;;;;;;;13.47;nan;100647.09;4970134;28;20171;-65
2022/09/12 00:26:30;;;;;;;5.30;4.77;;;;;;;13.55;nan;100647.06;4968950;28;20916;-64
2022/09/12 00:28:56;;;;;;;6.97;6.28;;;;;;;13.62;nan;100639.25;4969597;28;20400;-65
2022/09/12 00:31:24;;;;;;;6.63;5.25;;;;;;;13.54;nan;100634.78;4963636;28;20162;-65
2022/09/12 00:33:51;;;;;;;5.90;5.30;;;;;;;13.62;nan;100632.09;4969745;28;20454;-65
2022/09/12 00:36:22;;;;;;;6.22;5.10;;;;;;;13.66;nan;100628.13;4966950;28;20427;-66
2022/09/12 00:38:49;;;;;;;6.20;4.70;;;;;;;13.66;nan;100636.09;4969356;28;20411;-67
2022/09/12 00:41:18;;;;;;;5.45;4.32;;;;;;;13.58;nan;100636.09;4970291;28;20061;-67
2022/09/12 00:43:55;;;;;;;6.15;4.50;;;;;;;13.49;nan;100623.81;4970991;28;20031;-65
2022/09/12 00:46:44;;;;;;;4.32;3.70;;;;;;;13.42;nan;100631.63;4971749;28;20047;-65
2022/09/12 00:49:28;;;;;;;4.82;4.03;;;;;;;13.36;nan;100630.47;4970020;28;20524;-65
2022/09/12 00:52:02;;;;;;;4.60;3.80;;;;;;;13.31;nan;100630.13;4969659;28;20041;-65
2022/09/12 00:54:32;;;;;;;4.70;3.95;;;;;;;13.33;nan;100622.03;4970396;28;20458;-65
2022/09/12 00:57:03;;;;;;;4.85;3.95;;;;;;;13.36;nan;100622.50;4969431;28;20035;-64
2022/09/12 00:59:36;;;;;;;6.45;4.80;;;;;;;13.38;nan;100620.50;4970416;28;20488;-65
2022/09/12 01:02:02;;;;;;;6.72;5.28;;;;;;;13.43;nan;100621.84;4967104;28;20431;-64
2022/09/12 01:04:28;;;;;;;7.45;5.38;;;;;;;13.48;nan;100619.50;4968643;28;20168;-65
2022/09/12 01:06:56;;;;;;;8.00;5.95;;;;;;;13.52;nan;100618.19;4969720;28;20038;-65
2022/09/12 01:09:22;;;;;;;8.30;6.75;;;;;;;13.55;nan;100623.97;4970175;28;20117;-65
2022/09/12 01:11:50;;;;;;;8.27;6.88;;;;;;;13.57;nan;100621.16;4963989;28;20039;-64
2022/09/12 01:14:17;;;;;;;10.05;7.93;;;;;;;13.64;nan;100614.16;4969705;28;20129;-65
2022/09/12 01:16:44;;;;;;;10.98;7.18;;;;;;;13.67;nan;100610.34;4968587;28;20399;-64
2022/09/12 01:19:12;;;;;;;8.73;7.35;;;;;;;13.68;nan;100607.53;4969883;28;20402;-65
2022/09/12 01:22:08;;;;;;;8.93;7.03;;;;;;;13.67;nan;100608.50;4966054;28;20039;-65
2022/09/12 01:25:04;;;;;;;9.10;7.40;;;;;;;13.69;nan;100608.34;4964810;28;20539;-65
2022/09/12 01:27:42;;;;;;;8.50;7.13;;;;;;;13.66;nan;100606.84;4969548;28;20066;-64
2022/09/12 01:30:21;;;;;;;10.90;6.85;;;;;;;13.65;nan;100602.53;4969127;28;20377;-65
2022/09/12 01:33:04;;;;;;;10.20;7.50;;;;;;;13.68;nan;100599.56;4966692;28;20091;-65
2022/09/12 01:35:45;;;;;;;10.27;8.02;;;;;;;13.63;nan;100601.84;4969796;28;20034;-64
2022/09/12 01:38:45;;;;;;;9.20;7.32;;;;;;;13.64;nan;100600.06;4968572;28;20456;-65
2022/09/12 01:41:32;;;;;;;11.38;7.85;;;;;;;13.65;nan;100599.88;4968829;28;20038;-65
2022/09/12 01:44:30;;;;;;;9.82;7.03;;;;;;;13.63;nan;100591.22;4969980;28;20496;-65
2022/09/12 01:47:20;;;;;;;10.15;7.65;;;;;;;13.64;nan;100592.09;4969590;28;20043;-65
2022/09/12 01:49:59;;;;;;;10.23;7.93;;;;;;;13.64;nan;100590.25;4969788;28;20046;-65
2022/09/12 01:52:36;;;;;;;9.63;7.88;;;;;;;13.63;nan;100593.88;4969676;28;20034;-65
2022/09/12 01:55:11;;;;;;;9.93;7.63;;;;;;;13.63;nan;100595.72;4968386;28;20106;-65
2022/09/12 01:57:44;;;;;;;8.27;7.10;;;;;;;13.59;nan;100582.78;4971063;28;20226;-65
2022/09/12 02:00:10;;;;;;;9.35;8.00;;;;;;;13.63;nan;100588.56;4968919;28;20118;-66
2022/09/12 02:02:41;;;;;;;11.23;8.25;;;;;;;13.66;nan;100585.59;4967068;28;20097;-65
2022/09/12 02:05:24;;;;;;;9.38;7.63;;;;;;;13.67;nan;100583.75;4967733;28;20550;-65
2022/09/12 02:08:15;;;;;;;7.88;6.25;;;;;;;13.63;nan;100583.25;4967330;28;20051;-65
2022/09/12 02:10:48;;;;;;;6.47;5.72;;;;;;;13.66;nan;100582.09;4967072;28;20472;-65
2022/09/12 02:13:34;;;;;;;6.05;5.25;;;;;;;13.68;nan;100577.44;4965591;28;20416;-65
2022/09/12 02:16:07;;;;;;;10.52;7.65;;;;;;;13.69;nan;100571.97;4970247;28;20031;-65
2022/09/12 02:18:36;;;;;;;8.45;7.22;;;;;;;13.68;nan;100570.31;4967973;28;20539;-65
2022/09/12 02:21:05;;;;;;;9.15;7.00;;;;;;;13.66;nan;100574.13;4969883;28;20126;-65
2022/09/12 02:23:31;;;;;;;9.90;7.78;;;;;;;13.65;nan;100575.13;4969299;28;20067;-65
2022/09/12 02:26:08;;;;;;;8.35;6.82;;;;;;;13.65;nan;100578.59;4968851;28;20415;-65
2022/09/12 02:28:36;;;;;;;7.65;6.25;;;;;;;13.58;nan;100573.13;4966725;28;20038;-65
2022/09/12 02:31:20;;;;;;;8.60;7.03;;;;;;;13.56;nan;100572.50;4968504;28;20035;-65
2022/09/12 02:34:04;;;;;;;9.32;7.38;;;;;;;13.60;nan;100573.81;4962077;28;20448;-65
2022/09/12 02:36:50;;;;;;;9.23;6.68;;;;;;;13.61;nan;100574.66;4962280;28;20097;-65
2022/09/12 02:39:18;;;;;;;8.68;7.32;;;;;;;13.58;nan;100567.00;4966168;28;20031;-65
2022/09/12 02:41:46;;;;;;;9.10;7.45;;;;;;;13.58;nan;100572.31;4971702;28;20047;-65
2022/09/12 02:44:11;;;;;;;8.80;7.13;;;;;;;13.59;nan;100568.69;4967648;28;20134;-66
2022/09/12 02:46:41;;;;;;;10.32;7.63;;;;;;;13.57;nan;100568.84;4972581;28;20504;-65
2022/09/12 02:49:07;;;;;;;10.85;7.60;;;;;;;13.63;nan;100571.81;4969841;28;20046;-65
2022/09/12 02:51:32;;;;;;;8.63;7.30;;;;;;;13.63;nan;100566.50;4972138;28;20263;-65
2022/09/12 02:53:58;;;;;;;8.52;6.95;;;;;;;13.59;nan;100566.03;4970325;28;20149;-65
2022/09/12 02:56:28;;;;;;;10.45;8.10;;;;;;;13.63;nan;100564.66;4976648;28;20072;-65
2022/09/12 02:58:59;;;;;;;9.73;7.60;;;;;;;13.59;nan;100556.22;4974230;28;20038;-65
2022/09/12 03:01:36;;;;;;;8.75;7.50;;;;;;;13.59;nan;100560.72;4972334;28;20097;-65
2022/09/12 03:04:29;;;;;;;8.73;7.18;;;;;;;13.54;nan;100557.75;4970374;28;20046;-65
2022/09/12 03:07:15;;;;;;;7.55;6.45;;;;;;;13.47;nan;100557.59;4969413;28;20039;-65
2022/09/12 03:09:57;;;;;;;8.60;6.65;;;;;;;13.43;nan;100558.09;4978044;28;20407;-65
2022/09/12 03:13:01;;;;;;;8.40;7.07;;;;;;;13.40;nan;100553.13;4970456;28;20399;-66
2022/09/12 03:15:50;;;;;;;10.02;7.35;;;;;;;13.37;nan;100556.91;4912002;29;20276;-65
2022/09/12 03:18:30;;;;;;;9.30;7.38;;;;;;;13.36;nan;100552.63;4910775;29;20060;-65
2022/09/12 03:21:01;;;;;;;10.27;8.23;;;;;;;13.38;nan;100553.28;4947658;28;20535;-65
2022/09/12 03:23:40;;;;;;;11.05;7.95;;;;;;;13.40;nan;100558.44;4971769;28;20050;-65
2022/09/12 03:26:12;;;;;;;12.20;8.02;;;;;;;13.45;nan;100556.09;4969880;28;20607;-66
2022/09/12 03:28:38;;;;;;;9.77;7.28;;;;;;;13.46;nan;100552.44;4972696;28;20039;-65
2022/09/12 03:31:17;;;;;;;10.20;7.72;;;;;;;13.45;nan;100551.59;4972035;28;20042;-65
2022/09/12 03:33:43;;;;;;;11.00;8.18;;;;;;;13.48;nan;100550.44;4971071;28;20043;-65
2022/09/12 03:36:15;;;;;;;10.50;7.85;;;;;;;13.46;nan;100557.75;4968404;28;20062;-66
2022/09/12 03:38:40;;;;;;;14.05;8.73;;;;;;;13.47;nan;100556.75;4960580;28;20031;-65
2022/09/12 03:41:06;;;;;;;12.30;8.93;;;;;;;13.47;nan;100554.09;4970641;28;20043;-66
2022/09/12 03:43:31;;;;;;;12.38;8.77;;;;;;;13.49;nan;100555.59;4965975;28;20337;-65
2022/09/12 03:45:56;;;;;;;12.57;8.73;;;;;;;13.53;nan;100553.41;4967156;28;20125;-65
2022/09/12 03:48:24;;;;;;;11.23;8.70;;;;;;;13.52;nan;100549.09;4970522;28;20255;-65
2022/09/12 03:50:49;;;;;;;12.43;8.30;;;;;;;13.44;nan;100551.75;4969236;28;20042;-65
2022/09/12 03:53:14;;;;;;;9.57;6.90;;;;;;;13.36;nan;100549.97;4971347;28;20031;-65
2022/09/12 03:55:40;;;;;;;9.07;7.28;;;;;;;13.32;nan;100549.50;4968807;28;20035;-65
2022/09/12 03:58:05;;;;;;;8.30;7.20;;;;;;;13.34;nan;100552.78;4969469;28;20411;-65
2022/09/12 04:00:31;;;;;;;7.85;6.50;;;;;;;13.22;nan;100562.06;4967641;28;20038;-65
2022/09/12 04:02:56;;;;;;;7.10;6.20;;;;;;;13.22;nan;100556.75;4968895;28;20399;-65
2022/09/12 04:05:22;;;;;;;8.25;6.25;;;;;;;13.23;nan;100553.13;4967297;28;20432;-65
2022/09/12 04:07:47;;;;;;;6.28;5.03;;;;;;;13.09;nan;100544.00;4971038;28;20031;-65
2022/09/12 04:10:13;;;;;;;9.73;6.10;;;;;;;13.00;nan;100546.84;4968895;28;20052;-66
2022/09/12 04:12:38;;;;;;;6.55;5.50;;;;;;;12.92;nan;100545.03;4970906;28;20034;-65
2022/09/12 04:15:06;;;;;;;5.50;4.82;;;;;;;12.84;nan;100553.78;4970007;28;20393;-65
2022/09/12 04:17:32;;;;;;;5.35;4.65;;;;;;;12.77;nan;100551.97;4965404;28;20034;-65
2022/09/12 04:19:57;;;;;;;6.25;4.53;;;;;;;12.69;nan;100548.31;4970678;28;20027;-65
2022/09/12 04:22:23;;;;;;;6.47;5.60;;;;;;;12.73;nan;100551.50;4968527;28;20414;-65
2022/09/12 04:24:48;;;;;;;;;;;;;;;12.62;nan;100549.97;4972175;28;20035;-65
2022/09/12 04:27:13;;;;;;;;;;;;;;;12.52;nan;100544.00;4969469;28;19918;-65
2022/09/12 04:29:38;;;;;;;7.77;5.90;;;;;;;12.47;nan;100543.66;4970845;28;19914;-65
2022/09/12 04:32:04;;;;;;;;;;;;;;;12.41;nan;100546.97;4973134;28;20094;-65
2022/09/12 04:34:30;;;;;;;7.45;5.50;;;;;;;12.37;nan;100550.94;4970213;28;19954;-65
2022/09/12 04:36:56;;;;;;;7.93;6.38;;;;;;;12.32;nan;100543.47;4969832;28;20035;-65
2022/09/12 04:39:21;;;;;;;8.27;6.60;;;;;;;12.33;nan;100545.13;4970645;28;20042;-65
2022/09/12 04:41:47;;;;;;;9.15;7.60;;;;;;;12.32;nan;100546.09;4969970;28;20038;-65
2022/09/12 04:44:13;;;;;;;7.70;6.28;;;;;;;12.30;nan;100546.28;4962242;28;20047;-66
2022/09/12 04:46:42;;;;;;;8.73;6.70;;;;;;;12.28;nan;100550.09;4969504;28;20125;-65
2022/09/12 04:49:07;;;;;;;10.82;7.30;;;;;;;12.31;nan;100549.75;4970706;28;20046;-65
2022/09/12 04:51:35;;;;;;;10.82;8.05;;;;;;;12.46;nan;100548.13;4965157;28;20043;-65
2022/09/12 04:54:06;;;;;;;11.02;8.90;;;;;;;12.64;nan;100548.00;4969326;28;20058;-65
2022/09/12 04:56:33;;;;;;;;;;;;;;;12.73;nan;100548.84;4964741;28;20042;-65
2022/09/12 04:58:59;;;;;;;;;;;;;;;12.76;nan;100551.16;4965495;28;19926;-65
2022/09/12 05:01:26;;;;;;;12.23;7.40;;;;;;;12.75;nan;100546.81;4969282;28;19925;-65
2022/09/12 05:03:52;;;;;;;7.50;6.47;;;;;;;12.85;nan;100544.84;4968394;28;20419;-65
2022/09/12 05:06:21;;;;;;;7.57;6.40;;;;;;;12.98;nan;100544.34;4964940;28;20416;-66
2022/09/12 05:08:46;;;;;;;12.77;8.43;;;;;;;13.03;nan;100542.00;4969877;28;20039;-66
2022/09/12 05:11:14;;;;;;;10.43;7.93;;;;;;;13.06;nan;100548.81;4968483;28;20315;-66
2022/09/12 05:13:40;;;;;;;9.95;7.13;;;;;;;13.05;nan;100550.63;4968478;28;20039;-66
2022/09/12 05:16:07;;;;;;;8.85;7.20;;;;;;;13.03;nan;100542.00;4969843;28;20516;-66
2022/09/12 05:18:34;;;;;;;8.70;7.05;;;;;;;13.04;nan;100550.78;4966584;28;20407;-66
2022/09/12 05:21:01;;;;;;;8.52;6.82;;;;;;;13.01;nan;100553.78;4969985;28;20121;-66
2022/09/12 05:23:26;;;;;;;;;;;;;;;12.98;nan;100552.31;4969952;28;20117;-66
2022/09/12 05:25:53;;;;;;;9.15;6.50;;;;;;;12.94;nan;100546.50;4969820;28;19918;-66
2022/09/12 05:28:20;;;;;;;9.57;7.40;;;;;;;12.93;nan;100547.50;4968400;28;20030;-66
2022/09/12 05:30:46;;;;;;;13.57;8.07;;;;;;;12.92;nan;100553.81;4969772;28;20035;-66
2022/09/12 05:33:11;;;;;;;9.32;6.93;;;;;;;12.96;nan;100547.16;4968801;28;20042;-66
2022/09/12 05:35:37;;;;;;;;;;;;;;;12.96;nan;100546.31;4970177;28;20030;-66
2022/09/12 05:38:03;;;;;;;10.50;7.47;;;;;;;12.96;nan;100549.81;4961882;28;20303;-66
2022/09/12 05:40:28;;;;;;;7.55;6.20;;;;;;;12.96;nan;100547.16;4969750;28;20035;-66
2022/09/12 05:42:54;;;;;;;10.15;7.70;;;;;;;12.98;nan;100552.31;4968665;28;20027;-66
2022/09/12 05:45:20;;;;;;;9.20;6.73;;;;;;;13.02;nan;100544.84;4969609;28;20035;-66
2022/09/12 05:47:45;;;;;;;9.75;7.32;;;;;;;13.09;nan;100551.97;4964374;28;20394;-65
2022/09/12 05:50:11;;;;;;;9.55;7.35;;;;;;;13.15;nan;100550.47;4968687;28;20266;-66
2022/09/12 05:52:36;;;;;;;7.27;5.67;;;;;;;13.35;nan;100546.50;4966402;28;20871;-66
2022/09/12 05:55:03;;;;;;;9.40;7.43;;;;;;;13.47;nan;100549.63;4969542;28;20560;-66
2022/09/12 05:57:28;;;;;;;8.38;6.35;;;;;;;13.81;nan;100549.31;4970458;28;20027;-66
2022/09/12 05:59:53;;;;;;;11.15;7.13;;;;;;;14.17;nan;100551.47;4963633;28;20377;-66
2022/09/12 06:02:18;;;;;;;12.85;8.38;;;;;;;14.44;nan;100542.19;4968801;28;20338;-66
2022/09/12 06:04:44;;;;;;;12.05;7.97;;;;;;;14.83;nan;100554.56;4966894;28;20165;-66
2022/09/12 06:07:10;;;;;;;9.27;6.55;;;;;;;15.16;nan;100545.44;4969517;28;20045;-66
2022/09/12 06:09:35;;;;;;;7.93;5.97;;;;;;;15.46;nan;100554.31;4955724;28;20058;-66
2022/09/12 06:12:01;;;;;;;7.32;5.60;;;;;;;15.71;nan;100546.91;4967686;28;20128;-66
2022/09/12 06:14:26;;;;;;;6.32;5.00;;;;;;;15.96;nan;100558.09;4968018;28;20406;-66
2022/09/12 06:16:51;;;;;;;6.00;5.03;;;;;;;16.08;nan;100553.91;4968613;28;20046;-66
2022/09/12 06:19:22;;;;;;;7.20;5.78;;;;;;;16.23;nan;100553.91;4973269;28;20422;-66
2022/09/12 06:21:48;;;;;;;6.93;5.25;;;;;;;16.49;nan;100552.53;4968875;28;20529;-66
2022/09/12 06:24:14;;;;;;;6.18;5.05;;;;;;;16.74;nan;100552.97;4971941;28;20403;-67
2022/09/12 06:26:40;;;;;;;6.85;5.50;;;;;;;16.86;nan;100553.31;4968628;28;20034;-66
2022/09/12 06:29:06;;;;;;;6.95;5.28;;;;;;;17.00;nan;100554.25;4968819;28;20038;-66
2022/09/12 06:31:34;;;;;;;9.90;5.53;;;;;;;17.14;nan;100546.16;4968410;28;20440;-67
2022/09/12 06:34:04;;;;;;;14.85;9.35;;;;;;;17.34;nan;100540.13;4969445;28;20193;-66
2022/09/12 06:36:33;;;;;;;22.10;11.82;;;;;;;17.52;nan;100548.47;4968882;28;20451;-66
2022/09/12 06:39:02;;;;;;;21.95;11.30;;;;;;;17.81;nan;100546.59;4974417;28;20219;-67
2022/09/12 06:41:29;;;;;;;18.42;9.73;;;;;;;18.14;nan;100540.50;4968571;28;20043;-67
2022/09/12 06:43:55;;;;;;;14.30;8.30;;;;;;;18.55;nan;100536.94;4968632;28;20476;-67
2022/09/12 06:46:21;;;;;;;8.98;6.13;;;;;;;18.84;nan;100536.56;4968610;28;20033;-67
2022/09/12 06:48:46;;;;;;;7.55;5.10;;;;;;;19.16;nan;100534.06;4968492;28;20122;-67
2022/09/12 06:51:13;;;;;;;6.47;4.32;;;;;;;19.49;nan;100535.88;4974291;28;20102;-67
2022/09/12 06:53:40;;;;;;;5.10;3.88;;;;;;;19.92;nan;100543.38;4968630;28;20121;-67
2022/09/12 06:56:13;;;;;;;4.25;3.50;;;;;;;20.45;nan;100544.97;4969036;28;20031;-67
2022/09/12 06:58:40;;;;;;;5.15;3.88;;;;;;;20.84;nan;100545.78;4966692;28;20432;-64
2022/09/12 07:01:07;;;;;;;4.07;3.40;;;;;;;21.07;nan;100548.69;4970565;28;20093;-64
2022/09/12 07:03:33;;;;;;;4.57;3.30;;;;;;;21.48;nan;100551.84;4968738;28;20393;-64
2022/09/12 07:06:03;;;;;;;4.40;3.10;;;;;;;21.72;nan;100555.50;4970405;28;20035;-65
2022/09/12 07:08:30;;;;;;;4.78;3.63;;;;;;;21.88;nan;100562.97;4968142;28;20447;-67
2022/09/12 07:10:57;;;;;;;4.78;3.65;;;;;;;21.82;nan;100556.63;4969981;28;20041;-66
2022/09/12 07:13:23;;;;;;;6.38;4.38;;;;;;;21.50;nan;100550.56;4968553;28;20465;-65
2022/09/12 07:15:48;;;;;;;4.65;3.80;;;;;;;21.70;nan;100553.03;4968120;28;20126;-65
2022/09/12 07:18:14;;;;;;;5.85;3.83;;;;;;;21.92;nan;100552.56;4968332;28;20496;-66
2022/09/12 07:20:39;;;;;;;6.03;4.60;;;;;;;22.19;nan;100561.13;4968080;28;20102;-67
2022/09/12 07:23:05;;;;;;;4.63;3.70;;;;;;;22.53;nan;100554.25;4968463;28;20834;-64
2022/09/12 07:25:30;;;;;;;4.93;3.73;;;;;;;22.83;nan;100559.59;4968118;28;20126;-65
2022/09/12 07:27:55;;;;;;;4.53;3.30;;;;;;;23.20;nan;100558.63;4972039;28;20282;-64
2022/09/12 07:30:21;;;;;;;4.20;3.50;;;;;;;23.56;nan;100562.09;4971276;28;20301;-66
2022/09/12 07:32:46;;;;;;;6.10;4.50;;;;;;;23.86;nan;100556.53;4972326;28;20686;-66
2022/09/12 07:35:12;;;;;;;4.80;3.60;;;;;;;24.01;nan;100558.75;4963188;28;20027;-66
2022/09/12 07:37:37;;;;;;;4.20;3.17;;;;;;;24.25;nan;100554.91;4967840;28;20026;-66
2022/09/12 07:40:03;;;;;;;3.45;2.70;;;;;;;24.46;nan;100555.28;4971992;28;20491;-66
2022/09/12 07:42:28;;;;;;;3.90;3.30;;;;;;;24.71;nan;100563.03;4969603;28;20294;-66
2022/09/12 07:44:53;;;;;;;4.95;3.75;;;;;;;24.86;nan;100559.75;4972376;28;20047;-66
2022/09/12 07:47:19;;;;;;;4.93;3.70;;;;;;;24.87;nan;100556.00;4968233;28;20093;-66
2022/09/12 07:49:44;;;;;;;3.63;3.10;;;;;;;24.96;nan;100549.13;4972401;28;20289;-66
2022/09/12 07:52:09;;;;;;;3.60;2.78;;;;;;;25.18;nan;100555.44;4970880;28;20035;-66
2022/09/12 07:54:35;;;;;;;4.55;3.10;;;;;;;25.40;nan;100560.06;4972508;28;20039;-66
2022/09/12 07:57:00;;;;;;;5.10;3.15;;;;;;;25.56;nan;100566.50;4971721;28;20070;-66
2022/09/12 07:59:26;;;;;;;4.15;3.30;;;;;;;25.55;nan;100564.84;4971962;28;20037;-66
2022/09/12 08:01:52;;;;;;;4.70;3.80;;;;;;;25.29;nan;100560.97;4970613;28;20324;-66
2022/09/12 08:04:17;;;;;;;4.00;3.50;;;;;;;25.38;nan;100562.19;4971978;28;20050;-66
2022/09/12 08:06:42;;;;;;;4.53;3.40;;;;;;;25.67;nan;100562.03;4973025;28;20047;-66
2022/09/12 08:09:08;;;;;;;3.83;3.15;;;;;;;26.03;nan;100557.94;4971966;28;20301;-66
2022/09/12 08:11:34;;;;;;;5.55;3.80;;;;;;;26.41;nan;100564.25;4969474;28;20117;-66
2022/09/12 08:14:01;;;;;;;4.85;3.72;;;;;;;26.53;nan;100556.81;4971731;28;20122;-66
2022/09/12 08:16:29;;;;;;;4.72;3.83;;;;;;;26.81;nan;100563.03;4973370;28;20042;-66
2022/09/12 08:18:55;;;;;;;4.75;3.50;;;;;;;27.19;nan;100572.00;4973431;28;20117;-66
2022/09/12 08:21:26;;;;;;;4.45;3.60;;;;;;;27.37;nan;100565.38;4971888;28;20367;-66
2022/09/12 08:23:57;;;;;;;4.50;3.67;;;;;;;27.38;nan;100567.81;4968769;28;20049;-66
2022/09/12 08:26:22;;;;;;;;;;;;;;;27.30;nan;100555.53;4971042;28;20553;-66
2022/09/12 08:28:48;;;;;;;5.78;4.32;;;;;;;27.40;nan;100552.06;4971899;28;19992;-66
2022/09/12 08:31:16;;;;;;;4.15;3.45;;;;;;;27.69;nan;100557.91;4972693;28;20041;-66
2022/09/12 08:33:42;;;;;;;3.90;3.22;;;;;;;28.08;nan;100554.84;4971931;28;20041;-66
2022/09/12 08:36:10;;;;;;;4.97;3.88;;;;;;;28.58;nan;100556.03;4970291;28;20522;-67
2022/09/12 08:38:37;;;;;;;3.95;3.03;;;;;;;28.63;nan;100555.22;4968183;28;20045;-66
2022/09/12 08:41:21;;;;;;;4.63;3.60;;;;;;;28.99;nan;100553.28;4970987;28;20073;-67
2022/09/12 08:43:49;;;;;;;5.38;4.32;;;;;;;29.16;nan;100547.56;4968562;28;20038;-66
2022/09/12 08:46:44;;;;;;;4.18;3.50;;;;;;;29.07;nan;100549.22;4970533;28;20034;-66
2022/09/12 08:49:14;;;;;;;5.75;3.72;;;;;;;29.18;nan;100547.31;4944396;28;20046;-66
2022/09/12 08:51:40;;;;;;;5.47;4.85;;;;;;;29.45;nan;100549.69;4970683;28;20279;-66
2022/09/12 08:54:19;;;;;;;3.90;3.22;;;;;;;29.75;nan;100558.88;4970127;28;20035;-66
2022/09/12 08:56:46;;;;;;;4.30;3.30;;;;;;;29.96;nan;100556.84;4970118;28;20240;-66
2022/09/12 08:59:12;;;;;;;4.20;3.38;;;;;;;30.30;nan;100551.53;4964038;28;20042;-66
2022/09/12 09:01:42;;;;;;;4.05;3.33;;;;;;;30.77;nan;100554.69;4970148;28;20117;-66
2022/09/12 09:04:44;;;;;;;3.83;3.13;;;;;;;31.14;nan;100550.56;4968333;28;20035;-67
2022/09/12 09:07:32;;;;;;;3.22;2.70;;;;;;;31.41;nan;100544.56;4971012;28;20039;-66
2022/09/12 09:10:23;;;;;;;4.55;3.05;;;;;;;31.69;nan;100559.25;4967986;28;20070;-66
2022/09/12 09:13:10;;;;;;;4.45;3.50;;;;;;;32.01;nan;100546.84;4969416;28;20077;-66
2022/09/12 09:15:45;;;;;;;3.85;3.15;;;;;;;32.91;nan;100545.69;4969786;28;20496;-66
2022/09/12 09:18:18;;;;;;;4.15;2.83;;;;;;;33.51;nan;100547.59;4968867;28;20062;-66
2022/09/12 09:20:52;;;;;;;3.90;3.13;;;;;;;33.34;nan;100544.66;4970238;28;20151;-66
2022/09/12 09:23:36;;;;;;;5.32;3.35;;;;;;;33.36;nan;100536.97;4969581;28;20034;-66
2022/09/12 09:26:09;;;;;;;3.72;3.30;;;;;;;33.23;nan;100544.06;4970143;28;20515;-66
2022/09/12 09:28:45;;;;;;;5.15;3.30;;;;;;;33.53;nan;100541.81;4968942;28;20031;-66
2022/09/12 09:31:15;;;;;;;3.63;2.70;;;;;;;34.04;nan;100551.75;4969996;28;20045;-66
2022/09/12 09:33:40;;;;;;;3.78;2.80;;;;;;;34.33;nan;100553.31;4969285;28;20046;-65
2022/09/12 09:36:24;;;;;;;4.55;2.83;;;;;;;34.93;nan;100549.38;4969744;28;20031;-67
2022/09/12 09:39:01;;;;;;;3.17;2.70;;;;;;;35.51;nan;100542.81;4969035;28;20046;-65
2022/09/12 09:42:00;;;;;;;4.05;2.72;;;;;;;35.70;nan;100540.63;4969718;28;20038;-66
2022/09/12 09:44:28;;;;;;;2.92;2.50;;;;;;;35.28;nan;100540.19;4967921;28;20055;-66
2022/09/12 09:46:56;;;;;;;3.90;2.70;;;;;;;35.46;nan;100538.28;4970499;28;20045;-66
2022/09/12 09:49:24;;;;;;;3.47;2.90;;;;;;;35.41;nan;100543.13;4965337;28;20215;-66
2022/09/12 09:51:50;;;;;;;3.67;2.83;;;;;;;35.34;nan;100540.81;4969270;28;20463;-66
2022/09/12 09:54:35;;;;;;;5.18;3.00;;;;;;;34.98;nan;100530.00;4968895;28;20058;-66
2022/09/12 09:57:00;;;;;;;4.22;3.05;;;;;;;34.77;nan;100529.72;4968602;28;20039;-65
2022/09/12 09:59:31;;;;;;;4.25;2.65;;;;;;;35.18;nan;100529.44;4966591;28;20038;-66
2022/09/12 10:02:13;;;;;;;3.40;2.38;;;;;;;35.44;nan;100523.22;4968967;28;20031;-65
2022/09/12 10:04:41;;;;;;;3.63;2.80;;;;;;;35.57;nan;100519.53;4967777;28;20105;-66
2022/09/12 10:07:17;;;;;;;4.13;3.00;;;;;;;35.34;nan;100521.59;4969209;28;20467;-66
2022/09/12 10:10:18;;;;;;;4.05;2.92;;;;;;;35.51;nan;100529.06;4968174;28;20038;-66
2022/09/12 10:12:44;;;;;;;2.95;2.30;;;;;;;36.16;nan;100521.94;4969160;28;20503;-66
2022/09/12 10:15:28;;;;;;;3.65;2.70;;;;;;;36.56;nan;100528.00;4968618;28;20523;-66
2022/09/12 10:17:55;;;;;;;3.50;2.83;;;;;;;36.26;nan;100523.53;4968840;28;20217;-66
2022/09/12 10:20:43;;;;;;;5.40;3.30;;;;;;;36.10;nan;100520.47;4968699;28;20447;-66
2022/09/12 10:23:23;;;;;;;2.80;2.10;;;;;;;36.28;nan;100510.22;4969199;28;20035;-66
2022/09/12 10:25:55;;;;;;;3.78;2.45;;;;;;;36.19;nan;100515.78;4971592;28;20035;-66
2022/09/12 10:28:28;;;;;;;4.65;3.20;;;;;;;36.65;nan;100510.69;4968326;28;20531;-66
2022/09/12 10:30:55;;;;;;;3.25;2.53;;;;;;;37.72;nan;100511.53;4969325;28;20042;-66
2022/09/12 10:33:24;;;;;;;3.20;2.83;;;;;;;38.49;nan;100514.81;4962885;28;20042;-66
2022/09/12 10:35:52;;;;;;;3.50;2.75;;;;;;;39.01;nan;100508.69;4972035;28;20026;-66
2022/09/12 10:38:22;;;;;;;4.00;3.50;;;;;;;38.66;nan;100511.88;4970558;28;20074;-66
2022/09/12 10:41:02;;;;;;;3.58;2.50;;;;;;;38.23;nan;100507.56;4971289;28;20039;-66
2022/09/12 10:43:41;;;;;;;3.50;2.35;;;;;;;38.21;nan;100511.78;4968699;28;20038;-66
2022/09/12 10:46:18;;;;;;;3.72;2.35;;;;;;;37.87;nan;100499.88;4960979;28;20086;-66
2022/09/12 10:48:48;;;;;;;4.50;2.60;;;;;;;37.73;nan;100502.91;4968606;28;20056;-66
2022/09/12 10:51:34;;;;;;;3.63;2.72;;;;;;;37.82;nan;100492.59;4968108;28;20183;-66
2022/09/12 10:54:07;;;;;;;3.38;2.55;;;;;;;37.90;nan;100499.22;4962016;28;21015;-66
2022/09/12 10:56:38;;;;;;;3.33;2.42;;;;;;;37.94;nan;100496.59;4966881;28;20034;-66
2022/09/12 10:59:51;;;;;;;2.20;1.80;;;;;;;38.18;nan;100488.44;4968570;28;20046;-66
2022/09/12 11:02:37;;;;;;;2.92;2.25;;;;;;;38.58;nan;100495.38;4969602;28;20086;-66
2022/09/12 11:05:10;;;;;;;2.90;2.35;;;;;;;39.06;nan;100480.03;4965581;28;20039;-66
2022/09/12 11:07:48;;;;;;;3.33;2.50;;;;;;;38.84;nan;100482.06;4972906;28;20090;-66
2022/09/12 11:10:39;;;;;;;2.55;2.00;;;;;;;38.31;nan;100469.97;4970361;28;20519;-66
2022/09/12 11:13:34;;;;;;;5.03;2.30;;;;;;;38.87;nan;100472.25;4971641;28;20031;-66
2022/09/12 11:16:36;;;;;;;3.45;2.35;;;;;;;39.07;nan;100465.06;4966749;28;20070;-66
2022/09/12 11:19:12;;;;;;;2.60;1.80;;;;;;;39.44;nan;100462.25;4972145;28;20065;-66
2022/09/12 11:22:01;;;;;;;2.65;2.00;;;;;;;40.16;nan;100453.25;4971266;28;20428;-66
2022/09/12 11:24:32;;;;;;;3.38;2.20;;;;;;;39.42;nan;100461.81;4965424;28;20305;-66
2022/09/12 11:27:17;;;;;;;2.65;2.10;;;;;;;39.39;nan;100455.00;4969140;28;20038;-66
2022/09/12 11:29:53;;;;;;;2.50;2.17;;;;;;;39.88;nan;100452.13;4971537;28;20038;-66
2022/09/12 11:32:58;;;;;;;2.13;1.70;;;;;;;40.32;nan;100459.66;4969893;28;20080;-66
2022/09/12 11:35:27;;;;;;;3.13;1.55;;;;;;;40.56;nan;100461.47;4971179;28;20039;-65
2022/09/12 11:38:20;;;;;;;2.47;1.80;;;;;;;39.97;nan;100451.16;4972784;28;20035;-66
2022/09/12 11:41:04;;;;;;;1.95;1.60;;;;;;;39.34;nan;100449.69;4973558;28;20522;-65
2022/09/12 11:43:48;;;;;;;2.03;1.55;;;;;;;39.06;nan;100453.16;4965612;28;20042;-66
2022/09/12 11:46:32;;;;;;;1.77;1.27;;;;;;;39.17;nan;100452.72;4971968;28;20061;-66
2022/09/12 11:49:13;;;;;;;2.22;1.73;;;;;;;38.04;nan;100452.03;4973225;28;20034;-66
2022/09/12 11:51:50;;;;;;;2.88;1.58;;;;;;;36.82;nan;100454.72;4973201;28;20041;-67
2022/09/12 11:54:27;;;;;;;2.03;1.70;;;;;;;35.98;nan;100441.28;4970141;28;20062;-67
2022/09/12 11:57:04;;;;;;;2.42;1.65;;;;;;;34.98;nan;100442.84;4971886;28;20038;-67
2022/09/12 11:59:53;;;;;;;1.77;1.50;;;;;;;34.50;nan;100434.56;4968427;28;20057;-67
2022/09/12 12:02:26;;;;;;;2.00;1.42;;;;;;;34.11;nan;100433.31;4961716;28;20033;-67
2022/09/12 12:05:23;;;;;;;1.80;1.50;;;;;;;33.53;nan;100430.22;4970501;28;20045;-67
2022/09/12 12:07:54;;;;;;;2.17;1.65;;;;;;;32.93;nan;100420.22;4966745;28;20074;-66